Terminal Aerodrome Forecast
Issued by NWS

Home | Current Version | Previous Version | Graphics & Text | Print | Product List | Glossary On
Versions: 1 2 3 4 5 6 7 8 9 10 11 12 13 14 15 16 17 18 19 20 21
000
FTUS43 KLOT 280530
TAFDPA
TAF
KDPA 280530Z 2806/2906 36007KT P6SM VCSH BKN070
     FM280900 35008KT 6SM -SHRA SCT015 BKN025
     FM281400 36012KT P6SM BKN015
     FM282000 02015G22KT P6SM VCSH BKN025
     FM290100 01012KT P6SM BKN035=

USA.gov is the U.S. government's official web portal to all federal, state and local government web resources and services.